Detall de PIREP

Printer-friendly versionPDF version

[2013/07/13 15:25:00]
Flight IATA:CT3254
Pilot Number:012
Company ICAO:CAT
Aircraft Type:B752/E
PAX:180
Aircraft Registration:PAX
Departing Airport: LEPA
Destination Airport: LDZA
Alternate Airport:LOWW
Online: VATSIM
Route:MEROS/M082F360 UN853 LUMAS UM985 GEN UM859 LUPOS UZ713 FER UM859 CHI/N0427F370 UL614 PUL/N0441F270 P11 CRE W45 KULEN M986 KOTOR
Flight Level:F370
No Slew and time accel
No pause
Crash detect
Detect pilot in Cockpit between each 30 and 45 minutes
15:25 Zero fuel Weight: 172053 Lbs, Fuel Weight: 22590 Lbs
15:25 VATSIM:LEPA 131500Z 05007KT 020V080 CAVOK 30/15 Q1016 NOSIG
15:25 VATSIM:LDZA 131500Z 11007KT 050V140 9999 FEW045 26/12 Q1017 NOSIG
15:25 VOICE CATALONIAN
15:26 Parking Brakes off
15:30 Take-off
15:30 Take off Weight: 193921 Lbs
15:30 Wind: 047º @ 006 Knots Heading: 239º
15:30 POS N39º 33´ 20´´ E002º 43´ 42´´
15:30 Gear Up: 180 Knots
15:30 Flaps:2 at 180 Knots
15:31 Flaps:1 at 195 Knots
15:31 Flaps:0 at 207 Knots
15:44 TOC
15:44 Fuel Weight: 17773 Lb
15:45 Wind:253º@051 Knots Heading: 027º Ground Speed: 508 Knots Altitude 37267 ft
16:00 Wind:257º@051 Knots Heading: 035º Ground Speed: 510 Knots Altitude 38054 ft
16:15 Wind:260º@044 Knots Heading: 052º Ground Speed: 510 Knots Altitude 38054 ft
16:30 Wind:268º@019 Knots Heading: 085º Ground Speed: 488 Knots Altitude 38202 ft
16:44 TOD
16:44 Fuel Weight: 10777 Lb
16:45 Wind:278º@052 Knots Heading: 098º Ground Speed: 524 Knots Altitude 36043 ft
17:00 Wind:307º@012 Knots Heading: 045º Ground Speed: 348 Knots Altitude 10666 ft
17:08 Flaps:1 at 229 Knots
17:08 Flaps:2 at 221 Knots
17:08 Gear Down: 220 Knots
17:09 Flaps:3 at 203 Knots
17:09 Flaps:4 at 193 Knots
17:09 Flaps:5 at 185 Knots
17:09 Flaps:6 at 179 Knots
17:10 TouchDown:Rate -268 ft/min Speed: 138 Knots
17:10 Flaps:5 at 87 Knots
17:10 VATSIM:LDZA 131700Z 14004KT 100V200 CAVOK 25/13 Q1016 NOSIG
17:10 Land
17:10 Wind:151º@004 Knots
17:10 Heading: 047º
17:10 Flight Duration: 01:40
17:10 Landing Weight: 181129 Lbs
17:10 POS N45º 44´ 24´´ E016º 03´ 52´´
17:14 Parking brakes on
17:14 Block to Block Duration: 01:48
17:14 Final Fuel: 8714 Lbls
17:14 Spent Fuel: 13875 Lbls
17:14 Flight Length: 769 NM
17:14 TOD Land Length: 162 NM

Exportar CSV

Powered by Drupal - Modified by Danger4k